sensor_id;sensor_type;location;lat;lon;timestamp;P1;durP1;ratioP1;P2;durP2;ratioP2
14708;SDS011;7445;50.774;4.944;2022-08-19T00:01:51;48.40;;;44.20;;
14708;SDS011;7445;50.774;4.944;2022-08-19T00:04:18;49.57;;;45.10;;
14708;SDS011;7445;50.774;4.944;2022-08-19T00:06:49;50.13;;;45.73;;
14708;SDS011;7445;50.774;4.944;2022-08-19T00:09:16;49.33;;;44.87;;
14708;SDS011;7445;50.774;4.944;2022-08-19T00:11:44;49.07;;;44.37;;
14708;SDS011;7445;50.774;4.944;2022-08-19T00:14:11;50.57;;;45.90;;
14708;SDS011;7445;50.774;4.944;2022-08-19T00:16:41;48.97;;;44.77;;
14708;SDS011;7445;50.774;4.944;2022-08-19T00:19:08;45.70;;;41.23;;
14708;SDS011;7445;50.774;4.944;2022-08-19T00:21:34;48.33;;;43.80;;
14708;SDS011;7445;50.774;4.944;2022-08-19T00:24:05;50.50;;;45.97;;
14708;SDS011;7445;50.774;4.944;2022-08-19T00:26:35;50.30;;;45.43;;
14708;SDS011;7445;50.774;4.944;2022-08-19T00:29:01;48.60;;;44.40;;
14708;SDS011;7445;50.774;4.944;2022-08-19T00:31:28;52.87;;;48.00;;
14708;SDS011;7445;50.774;4.944;2022-08-19T00:33:54;50.67;;;46.13;;
14708;SDS011;7445;50.774;4.944;2022-08-19T00:36:20;50.67;;;46.03;;
14708;SDS011;7445;50.774;4.944;2022-08-19T00:38:45;50.50;;;46.00;;
14708;SDS011;7445;50.774;4.944;2022-08-19T00:41:15;49.40;;;44.73;;
14708;SDS011;7445;50.774;4.944;2022-08-19T00:46:27;47.70;;;43.03;;
14708;SDS011;7445;50.774;4.944;2022-08-19T00:48:53;50.87;;;46.13;;
14708;SDS011;7445;50.774;4.944;2022-08-19T00:51:20;45.57;;;41.63;;
14708;SDS011;7445;50.774;4.944;2022-08-19T00:53:48;48.47;;;43.90;;
14708;SDS011;7445;50.774;4.944;2022-08-19T00:56:13;47.37;;;42.97;;
14708;SDS011;7445;50.774;4.944;2022-08-19T00:58:40;48.30;;;43.90;;
14708;SDS011;7445;50.774;4.944;2022-08-19T01:01:06;47.70;;;43.57;;
14708;SDS011;7445;50.774;4.944;2022-08-19T01:03:32;49.03;;;44.47;;
14708;SDS011;7445;50.774;4.944;2022-08-19T01:05:58;48.83;;;44.03;;
14708;SDS011;7445;50.774;4.944;2022-08-19T01:08:25;47.73;;;43.10;;
14708;SDS011;7445;50.774;4.944;2022-08-19T01:10:52;46.97;;;42.80;;
14708;SDS011;7445;50.774;4.944;2022-08-19T01:13:21;45.07;;;40.87;;
14708;SDS011;7445;50.774;4.944;2022-08-19T01:16:00;44.43;;;40.27;;
14708;SDS011;7445;50.774;4.944;2022-08-19T01:18:32;46.27;;;42.20;;
14708;SDS011;7445;50.774;4.944;2022-08-19T01:21:02;44.73;;;40.83;;
14708;SDS011;7445;50.774;4.944;2022-08-19T01:23:33;43.20;;;39.00;;
14708;SDS011;7445;50.774;4.944;2022-08-19T01:26:09;42.00;;;38.30;;
14708;SDS011;7445;50.774;4.944;2022-08-19T01:28:41;41.53;;;37.63;;
14708;SDS011;7445;50.774;4.944;2022-08-19T01:31:12;41.00;;;37.30;;
14708;SDS011;7445;50.774;4.944;2022-08-19T01:33:39;44.80;;;40.57;;
14708;SDS011;7445;50.774;4.944;2022-08-19T01:38:38;45.77;;;41.27;;
14708;SDS011;7445;50.774;4.944;2022-08-19T01:41:06;43.07;;;38.67;;
14708;SDS011;7445;50.774;4.944;2022-08-19T01:43:32;40.87;;;37.10;;
14708;SDS011;7445;50.774;4.944;2022-08-19T01:45:58;44.40;;;40.07;;
14708;SDS011;7445;50.774;4.944;2022-08-19T01:48:25;42.20;;;37.67;;
14708;SDS011;7445;50.774;4.944;2022-08-19T01:50:51;41.27;;;37.07;;
14708;SDS011;7445;50.774;4.944;2022-08-19T01:53:17;40.93;;;36.80;;
14708;SDS011;7445;50.774;4.944;2022-08-19T01:55:43;43.03;;;38.47;;
14708;SDS011;7445;50.774;4.944;2022-08-19T01:58:13;42.53;;;38.17;;
14708;SDS011;7445;50.774;4.944;2022-08-19T02:00:41;45.70;;;41.23;;
14708;SDS011;7445;50.774;4.944;2022-08-19T02:03:08;42.83;;;38.53;;
14708;SDS011;7445;50.774;4.944;2022-08-19T02:05:36;44.93;;;40.23;;
14708;SDS011;7445;50.774;4.944;2022-08-19T02:08:02;43.90;;;39.60;;
14708;SDS011;7445;50.774;4.944;2022-08-19T02:10:28;43.83;;;39.63;;
14708;SDS011;7445;50.774;4.944;2022-08-19T02:12:54;48.17;;;43.00;;
14708;SDS011;7445;50.774;4.944;2022-08-19T02:15:20;43.90;;;39.47;;
14708;SDS011;7445;50.774;4.944;2022-08-19T02:17:46;44.50;;;39.77;;
14708;SDS011;7445;50.774;4.944;2022-08-19T02:20:14;51.57;;;42.77;;
14708;SDS011;7445;50.774;4.944;2022-08-19T02:22:40;46.67;;;41.80;;
14708;SDS011;7445;50.774;4.944;2022-08-19T02:25:07;48.80;;;43.57;;
14708;SDS011;7445;50.774;4.944;2022-08-19T02:27:37;48.83;;;43.13;;
14708;SDS011;7445;50.774;4.944;2022-08-19T02:30:04;48.47;;;42.63;;
14708;SDS011;7445;50.774;4.944;2022-08-19T02:32:32;48.37;;;43.03;;
14708;SDS011;7445;50.774;4.944;2022-08-19T02:34:58;53.10;;;44.90;;
14708;SDS011;7445;50.774;4.944;2022-08-19T02:37:24;51.80;;;44.30;;
14708;SDS011;7445;50.774;4.944;2022-08-19T02:40:08;57.27;;;48.30;;
14708;SDS011;7445;50.774;4.944;2022-08-19T02:42:34;50.40;;;44.33;;
14708;SDS011;7445;50.774;4.944;2022-08-19T02:44:59;51.00;;;42.73;;
14708;SDS011;7445;50.774;4.944;2022-08-19T02:47:25;55.43;;;47.20;;
14708;SDS011;7445;50.774;4.944;2022-08-19T02:49:52;46.50;;;41.43;;
14708;SDS011;7445;50.774;4.944;2022-08-19T02:52:17;49.53;;;40.47;;
14708;SDS011;7445;50.774;4.944;2022-08-19T02:54:43;47.57;;;41.67;;
14708;SDS011;7445;50.774;4.944;2022-08-19T02:57:09;43.77;;;39.17;;
14708;SDS011;7445;50.774;4.944;2022-08-19T02:59:35;45.03;;;40.40;;
14708;SDS011;7445;50.774;4.944;2022-08-19T03:02:00;43.20;;;38.50;;
14708;SDS011;7445;50.774;4.944;2022-08-19T03:04:26;45.07;;;40.30;;
14708;SDS011;7445;50.774;4.944;2022-08-19T03:06:52;44.47;;;39.90;;
14708;SDS011;7445;50.774;4.944;2022-08-19T03:09:19;48.30;;;43.13;;
14708;SDS011;7445;50.774;4.944;2022-08-19T03:11:45;44.67;;;40.07;;
14708;SDS011;7445;50.774;4.944;2022-08-19T03:14:11;43.67;;;39.20;;
14708;SDS011;7445;50.774;4.944;2022-08-19T03:16:44;44.40;;;39.73;;
14708;SDS011;7445;50.774;4.944;2022-08-19T03:19:11;44.77;;;40.07;;
14708;SDS011;7445;50.774;4.944;2022-08-19T03:21:39;45.10;;;40.30;;
14708;SDS011;7445;50.774;4.944;2022-08-19T03:24:06;43.17;;;38.53;;
14708;SDS011;7445;50.774;4.944;2022-08-19T03:26:33;42.43;;;37.90;;
14708;SDS011;7445;50.774;4.944;2022-08-19T03:29:03;47.57;;;42.63;;
14708;SDS011;7445;50.774;4.944;2022-08-19T03:31:29;46.17;;;39.43;;
14708;SDS011;7445;50.774;4.944;2022-08-19T03:33:56;51.00;;;43.53;;
14708;SDS011;7445;50.774;4.944;2022-08-19T03:36:23;47.93;;;41.03;;
14708;SDS011;7445;50.774;4.944;2022-08-19T03:38:52;46.17;;;41.33;;
14708;SDS011;7445;50.774;4.944;2022-08-19T03:41:24;46.73;;;40.77;;
14708;SDS011;7445;50.774;4.944;2022-08-19T03:43:55;50.60;;;43.60;;
14708;SDS011;7445;50.774;4.944;2022-08-19T03:46:24;63.33;;;47.97;;
14708;SDS011;7445;50.774;4.944;2022-08-19T03:48:52;53.43;;;45.30;;
14708;SDS011;7445;50.774;4.944;2022-08-19T03:51:24;57.27;;;48.00;;
14708;SDS011;7445;50.774;4.944;2022-08-19T03:53:51;48.30;;;43.23;;
14708;SDS011;7445;50.774;4.944;2022-08-19T03:56:17;55.13;;;45.43;;
14708;SDS011;7445;50.774;4.944;2022-08-19T03:58:43;50.30;;;44.83;;
14708;SDS011;7445;50.774;4.944;2022-08-19T04:01:11;54.57;;;45.30;;
14708;SDS011;7445;50.774;4.944;2022-08-19T04:03:39;55.90;;;44.30;;
14708;SDS011;7445;50.774;4.944;2022-08-19T04:06:25;52.27;;;45.80;;
14708;SDS011;7445;50.774;4.944;2022-08-19T04:08:53;50.73;;;45.33;;
14708;SDS011;7445;50.774;4.944;2022-08-19T04:11:21;49.63;;;43.87;;
14708;SDS011;7445;50.774;4.944;2022-08-19T04:13:50;48.93;;;43.40;;
14708;SDS011;7445;50.774;4.944;2022-08-19T04:16:17;54.40;;;44.57;;
14708;SDS011;7445;50.774;4.944;2022-08-19T04:18:45;48.67;;;42.10;;
14708;SDS011;7445;50.774;4.944;2022-08-19T04:21:16;44.53;;;39.77;;
14708;SDS011;7445;50.774;4.944;2022-08-19T04:23:44;50.50;;;43.43;;
14708;SDS011;7445;50.774;4.944;2022-08-19T04:26:13;49.80;;;42.57;;
14708;SDS011;7445;50.774;4.944;2022-08-19T04:28:41;48.33;;;41.53;;
14708;SDS011;7445;50.774;4.944;2022-08-19T04:31:11;54.57;;;41.13;;
14708;SDS011;7445;50.774;4.944;2022-08-19T04:33:41;46.33;;;40.70;;
14708;SDS011;7445;50.774;4.944;2022-08-19T04:36:07;47.73;;;41.87;;
14708;SDS011;7445;50.774;4.944;2022-08-19T04:38:34;48.53;;;41.90;;
14708;SDS011;7445;50.774;4.944;2022-08-19T04:41:02;47.40;;;41.23;;
14708;SDS011;7445;50.774;4.944;2022-08-19T04:43:46;45.80;;;40.93;;
14708;SDS011;7445;50.774;4.944;2022-08-19T04:46:13;47.40;;;42.13;;
14708;SDS011;7445;50.774;4.944;2022-08-19T04:48:39;53.13;;;43.37;;
14708;SDS011;7445;50.774;4.944;2022-08-19T04:51:05;49.37;;;43.43;;
14708;SDS011;7445;50.774;4.944;2022-08-19T04:53:36;46.73;;;41.67;;
14708;SDS011;7445;50.774;4.944;2022-08-19T04:56:08;45.17;;;40.37;;
14708;SDS011;7445;50.774;4.944;2022-08-19T04:58:36;45.63;;;40.13;;
14708;SDS011;7445;50.774;4.944;2022-08-19T05:01:04;49.17;;;41.07;;
14708;SDS011;7445;50.774;4.944;2022-08-19T05:03:30;48.63;;;39.83;;
14708;SDS011;7445;50.774;4.944;2022-08-19T05:05:59;46.07;;;40.07;;
14708;SDS011;7445;50.774;4.944;2022-08-19T05:08:33;45.40;;;40.50;;
14708;SDS011;7445;50.774;4.944;2022-08-19T05:11:01;51.63;;;40.67;;
14708;SDS011;7445;50.774;4.944;2022-08-19T05:13:32;44.47;;;39.67;;
14708;SDS011;7445;50.774;4.944;2022-08-19T05:15:58;45.90;;;39.80;;
14708;SDS011;7445;50.774;4.944;2022-08-19T05:18:24;49.03;;;37.30;;
14708;SDS011;7445;50.774;4.944;2022-08-19T05:21:12;44.43;;;37.60;;
14708;SDS011;7445;50.774;4.944;2022-08-19T05:23:58;41.27;;;36.80;;
14708;SDS011;7445;50.774;4.944;2022-08-19T05:26:24;45.43;;;39.30;;
14708;SDS011;7445;50.774;4.944;2022-08-19T05:28:51;44.40;;;38.67;;
14708;SDS011;7445;50.774;4.944;2022-08-19T05:31:17;46.33;;;40.30;;
14708;SDS011;7445;50.774;4.944;2022-08-19T05:33:43;41.90;;;36.50;;
14708;SDS011;7445;50.774;4.944;2022-08-19T05:36:09;41.47;;;36.43;;
14708;SDS011;7445;50.774;4.944;2022-08-19T05:38:34;48.13;;;38.00;;
14708;SDS011;7445;50.774;4.944;2022-08-19T05:41:01;46.63;;;37.47;;
14708;SDS011;7445;50.774;4.944;2022-08-19T05:43:33;49.07;;;39.60;;
14708;SDS011;7445;50.774;4.944;2022-08-19T05:45:59;46.27;;;38.30;;
14708;SDS011;7445;50.774;4.944;2022-08-19T05:48:24;49.70;;;39.87;;
14708;SDS011;7445;50.774;4.944;2022-08-19T05:50:51;48.87;;;40.43;;
14708;SDS011;7445;50.774;4.944;2022-08-19T05:53:17;48.90;;;39.07;;
14708;SDS011;7445;50.774;4.944;2022-08-19T05:55:43;51.90;;;40.77;;
14708;SDS011;7445;50.774;4.944;2022-08-19T05:58:09;55.90;;;40.53;;
14708;SDS011;7445;50.774;4.944;2022-08-19T06:00:36;48.63;;;40.33;;
14708;SDS011;7445;50.774;4.944;2022-08-19T06:03:02;48.80;;;39.83;;
14708;SDS011;7445;50.774;4.944;2022-08-19T06:05:29;47.57;;;37.47;;
14708;SDS011;7445;50.774;4.944;2022-08-19T06:07:55;49.07;;;39.43;;
14708;SDS011;7445;50.774;4.944;2022-08-19T06:10:21;46.37;;;38.90;;
14708;SDS011;7445;50.774;4.944;2022-08-19T06:12:47;42.67;;;37.73;;
14708;SDS011;7445;50.774;4.944;2022-08-19T06:15:14;42.83;;;37.07;;
14708;SDS011;7445;50.774;4.944;2022-08-19T06:17:39;40.90;;;35.13;;
14708;SDS011;7445;50.774;4.944;2022-08-19T06:20:08;47.80;;;38.53;;
14708;SDS011;7445;50.774;4.944;2022-08-19T06:22:43;43.73;;;37.03;;
14708;SDS011;7445;50.774;4.944;2022-08-19T06:25:11;40.20;;;35.90;;
14708;SDS011;7445;50.774;4.944;2022-08-19T06:27:38;41.30;;;35.07;;
14708;SDS011;7445;50.774;4.944;2022-08-19T06:30:05;38.60;;;34.13;;
14708;SDS011;7445;50.774;4.944;2022-08-19T06:32:31;36.87;;;32.90;;
14708;SDS011;7445;50.774;4.944;2022-08-19T06:34:57;38.90;;;33.63;;
14708;SDS011;7445;50.774;4.944;2022-08-19T06:37:22;39.73;;;32.67;;
14708;SDS011;7445;50.774;4.944;2022-08-19T06:39:49;35.17;;;31.10;;
14708;SDS011;7445;50.774;4.944;2022-08-19T06:42:15;36.37;;;30.83;;
14708;SDS011;7445;50.774;4.944;2022-08-19T06:44:44;33.60;;;30.17;;
14708;SDS011;7445;50.774;4.944;2022-08-19T06:47:15;32.20;;;29.00;;
14708;SDS011;7445;50.774;4.944;2022-08-19T06:49:43;28.47;;;25.47;;
14708;SDS011;7445;50.774;4.944;2022-08-19T06:52:09;29.80;;;26.60;;
14708;SDS011;7445;50.774;4.944;2022-08-19T06:54:39;29.47;;;26.30;;
14708;SDS011;7445;50.774;4.944;2022-08-19T06:57:06;29.67;;;26.17;;
14708;SDS011;7445;50.774;4.944;2022-08-19T06:59:34;27.33;;;24.37;;
14708;SDS011;7445;50.774;4.944;2022-08-19T07:02:00;28.23;;;24.27;;
14708;SDS011;7445;50.774;4.944;2022-08-19T07:04:30;23.57;;;21.27;;
14708;SDS011;7445;50.774;4.944;2022-08-19T07:07:08;26.53;;;23.23;;
14708;SDS011;7445;50.774;4.944;2022-08-19T07:09:38;24.73;;;21.37;;
14708;SDS011;7445;50.774;4.944;2022-08-19T07:12:06;23.73;;;21.33;;
14708;SDS011;7445;50.774;4.944;2022-08-19T07:14:33;24.87;;;21.13;;
14708;SDS011;7445;50.774;4.944;2022-08-19T07:17:03;24.93;;;21.00;;
14708;SDS011;7445;50.774;4.944;2022-08-19T07:19:33;21.50;;;19.40;;
14708;SDS011;7445;50.774;4.944;2022-08-19T07:22:01;22.23;;;17.93;;
14708;SDS011;7445;50.774;4.944;2022-08-19T07:24:28;19.27;;;17.10;;
14708;SDS011;7445;50.774;4.944;2022-08-19T07:26:56;22.67;;;17.07;;
14708;SDS011;7445;50.774;4.944;2022-08-19T07:29:25;19.60;;;15.90;;
14708;SDS011;7445;50.774;4.944;2022-08-19T07:31:52;19.50;;;15.23;;
14708;SDS011;7445;50.774;4.944;2022-08-19T07:34:20;18.23;;;14.50;;
14708;SDS011;7445;50.774;4.944;2022-08-19T07:36:47;16.07;;;14.23;;
14708;SDS011;7445;50.774;4.944;2022-08-19T07:39:17;19.57;;;14.33;;
14708;SDS011;7445;50.774;4.944;2022-08-19T07:41:46;16.77;;;14.23;;
14708;SDS011;7445;50.774;4.944;2022-08-19T07:44:13;17.77;;;13.47;;
14708;SDS011;7445;50.774;4.944;2022-08-19T07:46:41;17.97;;;12.23;;
14708;SDS011;7445;50.774;4.944;2022-08-19T07:49:10;12.73;;;11.43;;
14708;SDS011;7445;50.774;4.944;2022-08-19T07:51:42;17.20;;;13.17;;
14708;SDS011;7445;50.774;4.944;2022-08-19T07:54:09;15.80;;;13.57;;
14708;SDS011;7445;50.774;4.944;2022-08-19T07:56:36;13.73;;;11.30;;
14708;SDS011;7445;50.774;4.944;2022-08-19T07:59:03;13.93;;;12.63;;
14708;SDS011;7445;50.774;4.944;2022-08-19T08:01:29;12.33;;;11.17;;
14708;SDS011;7445;50.774;4.944;2022-08-19T08:03:56;12.07;;;10.90;;
14708;SDS011;7445;50.774;4.944;2022-08-19T08:06:40;12.77;;;11.43;;
14708;SDS011;7445;50.774;4.944;2022-08-19T08:09:27;14.63;;;11.43;;
14708;SDS011;7445;50.774;4.944;2022-08-19T08:12:06;15.70;;;10.77;;
14708;SDS011;7445;50.774;4.944;2022-08-19T08:14:43;11.73;;;10.07;;
14708;SDS011;7445;50.774;4.944;2022-08-19T08:17:11;11.27;;;10.18;;
14708;SDS011;7445;50.774;4.944;2022-08-19T08:19:38;13.10;;;9.45;;
14708;SDS011;7445;50.774;4.944;2022-08-19T08:22:08;13.63;;;9.93;;
14708;SDS011;7445;50.774;4.944;2022-08-19T08:24:56;10.15;;;9.13;;
14708;SDS011;7445;50.774;4.944;2022-08-19T08:27:23;9.25;;;8.35;;
14708;SDS011;7445;50.774;4.944;2022-08-19T08:29:49;8.75;;;7.70;;
14708;SDS011;7445;50.774;4.944;2022-08-19T08:32:15;9.43;;;8.45;;
14708;SDS011;7445;50.774;4.944;2022-08-19T08:34:41;9.48;;;8.30;;
14708;SDS011;7445;50.774;4.944;2022-08-19T08:37:07;10.57;;;9.13;;
14708;SDS011;7445;50.774;4.944;2022-08-19T08:39:33;11.68;;;8.02;;
14708;SDS011;7445;50.774;4.944;2022-08-19T08:44:57;10.10;;;9.10;;
14708;SDS011;7445;50.774;4.944;2022-08-19T08:47:29;7.75;;;7.00;;
14708;SDS011;7445;50.774;4.944;2022-08-19T08:50:07;10.02;;;8.27;;
14708;SDS011;7445;50.774;4.944;2022-08-19T08:52:41;10.20;;;9.20;;
14708;SDS011;7445;50.774;4.944;2022-08-19T08:55:17;10.90;;;8.18;;
14708;SDS011;7445;50.774;4.944;2022-08-19T09:00:20;11.70;;;10.18;;
14708;SDS011;7445;50.774;4.944;2022-08-19T09:02:50;11.10;;;10.10;;
14708;SDS011;7445;50.774;4.944;2022-08-19T09:05:15;13.85;;;11.30;;
14708;SDS011;7445;50.774;4.944;2022-08-19T09:10:42;11.65;;;10.55;;
14708;SDS011;7445;50.774;4.944;2022-08-19T09:13:23;10.70;;;9.82;;
14708;SDS011;7445;50.774;4.944;2022-08-19T09:15:54;10.55;;;9.73;;
14708;SDS011;7445;50.774;4.944;2022-08-19T09:18:40;10.20;;;9.25;;
14708;SDS011;7445;50.774;4.944;2022-08-19T09:21:18;8.85;;;8.00;;
14708;SDS011;7445;50.774;4.944;2022-08-19T09:23:45;9.77;;;8.98;;
14708;SDS011;7445;50.774;4.944;2022-08-19T09:26:13;9.00;;;8.23;;
14708;SDS011;7445;50.774;4.944;2022-08-19T09:28:40;8.68;;;7.95;;
14708;SDS011;7445;50.774;4.944;2022-08-19T09:31:09;10.02;;;9.02;;
14708;SDS011;7445;50.774;4.944;2022-08-19T09:33:36;10.55;;;9.55;;
14708;SDS011;7445;50.774;4.944;2022-08-19T09:36:06;9.45;;;8.45;;
14708;SDS011;7445;50.774;4.944;2022-08-19T09:38:34;9.77;;;8.77;;
14708;SDS011;7445;50.774;4.944;2022-08-19T09:41:04;9.98;;;9.20;;
14708;SDS011;7445;50.774;4.944;2022-08-19T09:43:32;9.57;;;8.88;;
14708;SDS011;7445;50.774;4.944;2022-08-19T09:46:01;13.93;;;9.07;;
14708;SDS011;7445;50.774;4.944;2022-08-19T09:48:27;11.18;;;9.05;;
14708;SDS011;7445;50.774;4.944;2022-08-19T09:50:53;9.73;;;8.90;;
14708;SDS011;7445;50.774;4.944;2022-08-19T09:53:20;9.10;;;8.20;;
14708;SDS011;7445;50.774;4.944;2022-08-19T09:55:47;8.60;;;7.78;;
14708;SDS011;7445;50.774;4.944;2022-08-19T09:58:13;10.02;;;9.23;;
14708;SDS011;7445;50.774;4.944;2022-08-19T10:00:38;9.18;;;8.30;;
14708;SDS011;7445;50.774;4.944;2022-08-19T10:03:04;8.75;;;8.05;;
14708;SDS011;7445;50.774;4.944;2022-08-19T10:05:30;9.15;;;8.25;;
14708;SDS011;7445;50.774;4.944;2022-08-19T10:08:14;10.63;;;8.95;;
14708;SDS011;7445;50.774;4.944;2022-08-19T10:11:00;9.45;;;8.55;;
14708;SDS011;7445;50.774;4.944;2022-08-19T10:13:27;9.27;;;8.38;;
14708;SDS011;7445;50.774;4.944;2022-08-19T10:15:55;9.30;;;8.50;;
14708;SDS011;7445;50.774;4.944;2022-08-19T10:18:26;8.35;;;7.68;;
14708;SDS011;7445;50.774;4.944;2022-08-19T10:21:01;8.10;;;7.22;;
14708;SDS011;7445;50.774;4.944;2022-08-19T10:23:32;8.48;;;7.78;;
14708;SDS011;7445;50.774;4.944;2022-08-19T10:25:59;8.77;;;7.40;;
14708;SDS011;7445;50.774;4.944;2022-08-19T10:28:25;9.40;;;8.40;;
14708;SDS011;7445;50.774;4.944;2022-08-19T10:30:52;8.40;;;7.50;;
14708;SDS011;7445;50.774;4.944;2022-08-19T10:33:18;9.77;;;8.88;;
14708;SDS011;7445;50.774;4.944;2022-08-19T10:35:43;9.18;;;8.38;;
14708;SDS011;7445;50.774;4.944;2022-08-19T10:38:12;8.27;;;7.55;;
14708;SDS011;7445;50.774;4.944;2022-08-19T10:40:38;8.75;;;7.97;;
14708;SDS011;7445;50.774;4.944;2022-08-19T10:43:03;7.32;;;6.72;;
14708;SDS011;7445;50.774;4.944;2022-08-19T10:45:29;6.75;;;5.88;;
14708;SDS011;7445;50.774;4.944;2022-08-19T10:47:54;5.75;;;5.35;;
14708;SDS011;7445;50.774;4.944;2022-08-19T10:50:20;6.35;;;5.57;;
14708;SDS011;7445;50.774;4.944;2022-08-19T10:53:06;4.80;;;4.40;;
14708;SDS011;7445;50.774;4.944;2022-08-19T10:55:36;8.40;;;5.15;;
14708;SDS011;7445;50.774;4.944;2022-08-19T10:58:20;5.97;;;4.30;;
14708;SDS011;7445;50.774;4.944;2022-08-19T11:00:55;7.15;;;4.50;;
14708;SDS011;7445;50.774;4.944;2022-08-19T11:03:22;8.48;;;5.95;;
14708;SDS011;7445;50.774;4.944;2022-08-19T11:05:59;7.53;;;5.90;;
14708;SDS011;7445;50.774;4.944;2022-08-19T11:08:26;6.07;;;5.35;;
14708;SDS011;7445;50.774;4.944;2022-08-19T11:10:52;7.90;;;5.82;;
14708;SDS011;7445;50.774;4.944;2022-08-19T11:13:21;5.65;;;5.13;;
14708;SDS011;7445;50.774;4.944;2022-08-19T11:15:55;5.50;;;5.05;;
14708;SDS011;7445;50.774;4.944;2022-08-19T11:18:22;5.68;;;4.43;;
14708;SDS011;7445;50.774;4.944;2022-08-19T11:20:48;4.82;;;4.18;;
14708;SDS011;7445;50.774;4.944;2022-08-19T11:23:14;6.20;;;5.70;;
14708;SDS011;7445;50.774;4.944;2022-08-19T11:25:39;5.68;;;5.18;;
14708;SDS011;7445;50.774;4.944;2022-08-19T11:28:05;5.78;;;5.28;;
14708;SDS011;7445;50.774;4.944;2022-08-19T11:30:31;6.82;;;5.18;;
14708;SDS011;7445;50.774;4.944;2022-08-19T11:32:58;5.00;;;4.60;;
14708;SDS011;7445;50.774;4.944;2022-08-19T11:35:25;5.05;;;4.65;;
14708;SDS011;7445;50.774;4.944;2022-08-19T11:37:51;5.32;;;4.82;;
14708;SDS011;7445;50.774;4.944;2022-08-19T11:40:17;5.00;;;4.15;;
14708;SDS011;7445;50.774;4.944;2022-08-19T11:42:42;5.35;;;4.97;;
14708;SDS011;7445;50.774;4.944;2022-08-19T11:45:22;5.43;;;4.90;;
14708;SDS011;7445;50.774;4.944;2022-08-19T11:47:49;5.68;;;5.18;;
14708;SDS011;7445;50.774;4.944;2022-08-19T11:50:15;6.22;;;5.47;;
14708;SDS011;7445;50.774;4.944;2022-08-19T11:52:41;6.05;;;5.10;;
14708;SDS011;7445;50.774;4.944;2022-08-19T11:55:08;7.88;;;6.28;;
14708;SDS011;7445;50.774;4.944;2022-08-19T11:57:34;7.25;;;5.95;;
14708;SDS011;7445;50.774;4.944;2022-08-19T12:00:00;7.50;;;6.68;;
14708;SDS011;7445;50.774;4.944;2022-08-19T12:02:26;7.35;;;5.85;;
14708;SDS011;7445;50.774;4.944;2022-08-19T12:04:52;8.10;;;6.82;;
14708;SDS011;7445;50.774;4.944;2022-08-19T12:07:18;7.75;;;6.97;;
14708;SDS011;7445;50.774;4.944;2022-08-19T12:09:44;7.20;;;6.55;;
14708;SDS011;7445;50.774;4.944;2022-08-19T12:12:10;8.05;;;7.25;;
14708;SDS011;7445;50.774;4.944;2022-08-19T12:14:35;6.65;;;6.05;;
14708;SDS011;7445;50.774;4.944;2022-08-19T12:17:01;7.05;;;6.35;;
14708;SDS011;7445;50.774;4.944;2022-08-19T12:19:29;6.50;;;5.85;;
14708;SDS011;7445;50.774;4.944;2022-08-19T12:21:58;7.38;;;6.53;;
14708;SDS011;7445;50.774;4.944;2022-08-19T12:24:25;7.55;;;6.75;;
14708;SDS011;7445;50.774;4.944;2022-08-19T12:26:51;7.65;;;6.93;;
14708;SDS011;7445;50.774;4.944;2022-08-19T12:29:17;7.47;;;6.63;;
14708;SDS011;7445;50.774;4.944;2022-08-19T12:31:42;6.88;;;6.20;;
14708;SDS011;7445;50.774;4.944;2022-08-19T12:34:08;6.07;;;5.57;;
14708;SDS011;7445;50.774;4.944;2022-08-19T12:36:34;4.63;;;4.22;;
14708;SDS011;7445;50.774;4.944;2022-08-19T12:38:59;6.18;;;5.57;;
14708;SDS011;7445;50.774;4.944;2022-08-19T12:41:25;5.47;;;4.97;;
14708;SDS011;7445;50.774;4.944;2022-08-19T12:43:51;8.43;;;5.72;;
14708;SDS011;7445;50.774;4.944;2022-08-19T12:46:18;7.43;;;6.65;;
14708;SDS011;7445;50.774;4.944;2022-08-19T12:48:44;6.20;;;5.60;;
14708;SDS011;7445;50.774;4.944;2022-08-19T12:51:11;5.97;;;5.47;;
14708;SDS011;7445;50.774;4.944;2022-08-19T12:53:40;8.73;;;6.65;;
14708;SDS011;7445;50.774;4.944;2022-08-19T12:56:06;9.40;;;8.50;;
14708;SDS011;7445;50.774;4.944;2022-08-19T12:58:33;8.35;;;7.47;;
14708;SDS011;7445;50.774;4.944;2022-08-19T13:00:59;8.90;;;8.02;;
14708;SDS011;7445;50.774;4.944;2022-08-19T13:03:32;11.18;;;7.90;;
14708;SDS011;7445;50.774;4.944;2022-08-19T13:05:58;7.25;;;6.55;;
14708;SDS011;7445;50.774;4.944;2022-08-19T13:08:23;8.35;;;7.43;;
14708;SDS011;7445;50.774;4.944;2022-08-19T13:10:49;9.10;;;8.02;;
14708;SDS011;7445;50.774;4.944;2022-08-19T13:13:15;7.82;;;7.22;;
14708;SDS011;7445;50.774;4.944;2022-08-19T13:15:42;8.73;;;7.90;;
14708;SDS011;7445;50.774;4.944;2022-08-19T13:18:10;10.15;;;9.25;;
14708;SDS011;7445;50.774;4.944;2022-08-19T13:20:36;9.18;;;8.38;;
14708;SDS011;7445;50.774;4.944;2022-08-19T13:23:03;10.30;;;9.40;;
14708;SDS011;7445;50.774;4.944;2022-08-19T13:25:29;9.65;;;8.75;;
14708;SDS011;7445;50.774;4.944;2022-08-19T13:27:55;9.07;;;8.27;;
14708;SDS011;7445;50.774;4.944;2022-08-19T13:30:21;8.48;;;7.78;;
14708;SDS011;7445;50.774;4.944;2022-08-19T13:33:06;8.30;;;7.50;;
14708;SDS011;7445;50.774;4.944;2022-08-19T13:35:36;8.25;;;7.05;;
14708;SDS011;7445;50.774;4.944;2022-08-19T13:38:04;7.10;;;6.50;;
14708;SDS011;7445;50.774;4.944;2022-08-19T13:40:31;7.78;;;6.93;;
14708;SDS011;7445;50.774;4.944;2022-08-19T13:43:01;9.95;;;9.00;;
14708;SDS011;7445;50.774;4.944;2022-08-19T13:45:28;9.35;;;8.55;;
14708;SDS011;7445;50.774;4.944;2022-08-19T13:47:57;8.52;;;7.82;;
14708;SDS011;7445;50.774;4.944;2022-08-19T13:50:25;8.77;;;7.97;;
14708;SDS011;7445;50.774;4.944;2022-08-19T13:52:52;9.30;;;7.43;;
14708;SDS011;7445;50.774;4.944;2022-08-19T13:55:19;7.50;;;6.57;;
14708;SDS011;7445;50.774;4.944;2022-08-19T13:57:45;8.43;;;7.75;;
14708;SDS011;7445;50.774;4.944;2022-08-19T14:00:12;6.60;;;6.00;;
14708;SDS011;7445;50.774;4.944;2022-08-19T14:02:40;5.57;;;5.18;;
14708;SDS011;7445;50.774;4.944;2022-08-19T14:05:07;6.68;;;5.93;;
14708;SDS011;7445;50.774;4.944;2022-08-19T14:07:34;6.03;;;5.45;;
14708;SDS011;7445;50.774;4.944;2022-08-19T14:10:01;6.45;;;5.82;;
14708;SDS011;7445;50.774;4.944;2022-08-19T14:12:28;4.57;;;4.20;;
14708;SDS011;7445;50.774;4.944;2022-08-19T14:14:54;6.70;;;5.35;;
14708;SDS011;7445;50.774;4.944;2022-08-19T14:17:19;5.75;;;5.25;;
14708;SDS011;7445;50.774;4.944;2022-08-19T14:19:46;4.82;;;4.45;;
14708;SDS011;7445;50.774;4.944;2022-08-19T14:22:12;5.45;;;4.95;;
14708;SDS011;7445;50.774;4.944;2022-08-19T14:24:38;6.43;;;5.68;;
14708;SDS011;7445;50.774;4.944;2022-08-19T14:27:06;5.13;;;4.72;;
14708;SDS011;7445;50.774;4.944;2022-08-19T14:29:33;5.47;;;4.88;;
14708;SDS011;7445;50.774;4.944;2022-08-19T14:31:59;5.90;;;5.30;;
14708;SDS011;7445;50.774;4.944;2022-08-19T14:34:25;5.47;;;4.82;;
14708;SDS011;7445;50.774;4.944;2022-08-19T14:36:51;5.90;;;5.50;;
14708;SDS011;7445;50.774;4.944;2022-08-19T14:39:17;5.57;;;5.10;;
14708;SDS011;7445;50.774;4.944;2022-08-19T14:41:43;5.28;;;4.90;;
14708;SDS011;7445;50.774;4.944;2022-08-19T14:44:10;4.75;;;4.35;;
14708;SDS011;7445;50.774;4.944;2022-08-19T14:46:37;6.32;;;5.85;;
14708;SDS011;7445;50.774;4.944;2022-08-19T14:49:04;5.93;;;5.38;;
14708;SDS011;7445;50.774;4.944;2022-08-19T14:51:30;6.57;;;6.07;;
14708;SDS011;7445;50.774;4.944;2022-08-19T14:53:56;6.60;;;6.10;;
14708;SDS011;7445;50.774;4.944;2022-08-19T14:56:23;6.72;;;6.22;;
14708;SDS011;7445;50.774;4.944;2022-08-19T14:58:51;6.68;;;6.18;;
14708;SDS011;7445;50.774;4.944;2022-08-19T15:01:17;6.78;;;6.38;;
14708;SDS011;7445;50.774;4.944;2022-08-19T15:03:45;6.43;;;5.95;;
14708;SDS011;7445;50.774;4.944;2022-08-19T15:06:11;6.05;;;5.53;;